Time;durP1;ratioP1;P1;durP2;ratioP2;P2;SDS_P1;SDS_P2;PMS_P1;PMS_P2;Temp;Humidity;BMP_temperature;BMP_pressure;BME280_temperature;BME280_humidity;BME280_pressure;Samples;Min_cycle;Max_cycle;Signal;HPM_P1;HPM_P2
2022/01/01 00:00:04;;;;;;;;;;;;;;;14.25;48.60;99885.84;4467990;32;34428;-74
2022/01/01 00:02:38;;;;;;;;;;;;;;;13.96;49.04;99883.00;4466929;32;33925;-72
2022/01/01 00:05:07;;;;;;;;;;;;;;;14.03;48.87;99878.81;4466612;32;35349;-71
2022/01/01 00:07:34;;;;;;;;;;;;;;;13.66;50.36;99887.34;4468721;32;34018;-75
2022/01/01 00:10:02;;;;;;;;;;;;;;;14.13;48.77;99874.31;4471948;32;33299;-72
2022/01/01 00:12:30;;;;;;;;;;;;;;;14.13;49.29;99868.94;4465327;32;35280;-71
2022/01/01 00:14:57;;;;;;;;;;;;;;;13.82;50.25;99870.75;4464918;32;33954;-71
2022/01/01 00:17:25;;;;;;;;;;;;;;;13.49;51.94;99875.34;4470562;32;34210;-73
2022/01/01 00:19:52;;;;;;;;;;;;;;;13.64;51.28;99872.31;4477918;31;33365;-73
2022/01/01 00:22:20;;;;;;;;;;;;;;;13.56;51.27;99875.69;4460354;32;33007;-73
2022/01/01 00:24:47;;;;;;;;;;;;;;;13.41;51.48;99864.37;4476563;32;33765;-72
2022/01/01 00:27:15;;;;;;;;;;;;;;;13.43;51.14;99851.66;4464162;32;35171;-72
2022/01/01 00:29:42;;;;;;;;;;;;;;;13.49;50.85;99861.06;4475375;32;33318;-73
2022/01/01 00:32:10;;;;;;;;;;;;;;;13.57;50.82;99855.00;4465794;32;33142;-72
2022/01/01 00:34:37;;;;;;;;;;;;;;;13.55;49.59;99847.09;4475969;32;35242;-69
2022/01/01 00:37:05;;;;;;;;;;;;;;;13.31;50.01;99836.56;4446697;32;834443;-72
2022/01/01 00:39:32;;;;;;;;;;;;;;;13.36;50.41;99852.31;4466030;32;33566;-73
2022/01/01 00:42:00;;;;;;;;;;;;;;;13.51;49.28;99846.50;4462716;32;32979;-70
2022/01/01 00:44:30;;;;;;;;;;;;;;;13.58;49.00;99841.44;4468633;32;35069;-70
2022/01/01 00:46:57;;;;;;;;;;;;;;;13.59;48.90;99843.16;4463619;32;34471;-71
2022/01/01 00:49:25;;;;;;;;;;;;;;;13.65;48.63;99847.16;4466418;32;32134;-70
2022/01/01 00:51:53;;;;;;;;;;;;;;;13.67;48.53;99843.31;4465385;32;35242;-71
2022/01/01 00:54:20;;;;;;;;;;;;;;;13.55;48.62;99854.28;4465591;31;33130;-70
2022/01/01 00:56:48;;;;;;;;;;;;;;;13.70;48.25;99843.06;4464754;32;34110;-71
2022/01/01 00:59:15;;;;;;;;;;;;;;;13.72;47.96;99843.78;4467816;32;33974;-71
2022/01/01 01:01:42;;;;;;;;;;;;;;;13.65;48.35;99836.41;4468562;32;33958;-71
2022/01/01 01:04:10;;;;;;;;;;;;;;;13.62;48.19;99859.03;4471372;31;33348;-70
2022/01/01 01:06:37;;;;;;;;;;;;;;;13.51;48.02;99859.94;4468993;32;35232;-70
2022/01/01 01:09:05;;;;;;;;;;;;;;;13.30;48.56;99855.53;4471621;31;33242;-71
2022/01/01 01:11:41;;;;;;;;;;;;;;;13.48;48.95;99878.16;4474536;32;34109;-70
2022/01/01 01:14:10;;;;;;;;;;;;;;;13.39;48.94;99868.19;4466034;32;34147;-76
2022/01/01 01:16:38;;;;;;;;;;;;;;;13.33;49.55;99864.19;4476441;32;35000;-75
2022/01/01 01:19:06;;;;;;;;;;;;;;;13.26;50.08;99871.06;4472892;32;32854;-73
2022/01/01 01:21:34;;;;;;;;;;;;;;;13.45;50.19;99871.22;4479006;32;34207;-74
2022/01/01 01:24:02;;;;;;;;;;;;;;;13.49;50.25;99871.81;4476522;32;34093;-73
2022/01/01 01:26:29;;;;;;;;;;;;;;;13.60;49.89;99865.50;4468128;32;35314;-74
2022/01/01 01:28:58;;;;;;;;;;;;;;;13.20;51.62;99858.97;4477731;32;33280;-73
2022/01/01 01:31:28;;;;;;;;;;;;;;;13.53;50.13;99867.88;4473878;32;34487;-74
2022/01/01 01:33:55;;;;;;;;;;;;;;;13.56;49.79;99869.44;4471122;32;35405;-68
2022/01/01 01:36:23;;;;;;;;;;;;;;;13.73;49.95;99861.63;4465668;32;34513;-71
2022/01/01 01:38:50;;;;;;;;;;;;;;;13.28;50.09;99867.25;4468620;32;32526;-70
2022/01/01 01:41:18;;;;;;;;;;;;;;;13.13;49.53;99873.00;4477130;31;35220;-70
2022/01/01 01:43:46;;;;;;;;;;;;;;;13.39;48.89;99868.19;4470459;32;33106;-67
2022/01/01 01:46:14;;;;;;;;;;;;;;;13.52;48.73;99866.16;4468578;32;33550;-72
2022/01/01 01:48:44;;;;;;;;;;;;;;;13.47;49.07;99868.38;4469053;32;33113;-68
2022/01/01 01:51:11;;;;;;;;;;;;;;;13.58;49.53;99859.41;4468920;32;34118;-70
2022/01/01 01:53:39;;;;;;;;;;;;;;;13.53;49.90;99865.19;4465599;32;34227;-71
2022/01/01 01:56:06;;;;;;;;;;;;;;;13.42;50.27;99859.88;4473005;32;34101;-72
2022/01/01 01:58:34;;;;;;;;;;;;;;;13.51;49.87;99862.63;4466708;32;32352;-71
2022/01/01 02:01:20;;;;;;;;;;;;;;;13.75;49.76;99872.28;4470216;32;34431;-71
2022/01/01 02:03:49;;;;;;;;;;;;;;;13.14;52.55;99869.38;4467535;32;34313;-73
2022/01/01 02:06:16;;;;;;;;;;;;;;;13.43;52.18;99869.63;4470667;32;34162;-71
2022/01/01 02:08:44;;;;;;;;;;;;;;;13.78;51.59;99868.47;4466466;32;33372;-73
2022/01/01 02:11:11;;;;;;;;;;;;;;;13.82;51.50;99860.00;4467033;32;34035;-73
2022/01/01 02:14:00;;;;;;;;;;;;;;;13.75;51.68;99861.50;4473447;32;34420;-71
2022/01/01 02:16:33;;;;;;;;;;;;;;;13.73;51.32;99867.00;4472812;32;34606;-74
2022/01/01 02:19:00;;;;;;;;;;;;;;;13.80;50.74;99869.16;4467224;31;34076;-71
2022/01/01 02:21:29;;;;;;;;;;;;;;;13.97;49.83;99865.88;4463810;32;32035;-72
2022/01/01 02:23:59;;;;;;;;;;;;;;;13.99;49.58;99869.28;4476243;32;34073;-73
2022/01/01 02:26:30;;;;;;;;;;;;;;;14.08;49.42;99867.62;4473933;31;34389;-72
2022/01/01 02:28:58;;;;;;;;;;;;;;;13.88;50.21;99870.22;4474408;32;33473;-72
2022/01/01 02:31:25;;;;;;;;;;;;;;;13.97;50.00;99873.97;4462862;32;32566;-71
2022/01/01 02:33:53;;;;;;;;;;;;;;;14.05;49.89;99878.66;4472386;32;33973;-70
2022/01/01 02:36:34;;;;;;;;;;;;;;;13.94;50.10;99882.28;4469312;32;34798;-73
2022/01/01 02:39:09;;;;;;;;;;;;;;;13.90;50.91;99875.44;4473715;32;32773;-73
2022/01/01 02:41:36;;;;;;;;;;;;;;;13.93;51.42;99872.50;4471707;32;32408;-70
2022/01/01 02:44:05;;;;;;;;;;;;;;;13.99;51.23;99880.88;4469960;32;34189;-72
2022/01/01 02:46:33;;;;;;;;;;;;;;;13.97;52.08;99868.56;4472651;31;34054;-70
2022/01/01 02:49:01;;;;;;;;;;;;;;;13.05;55.90;99877.19;4466749;32;33246;-71
2022/01/01 02:51:28;;;;;;;;;;;;;;;13.25;56.18;99864.81;4472265;32;33956;-70
2022/01/01 02:53:56;;;;;;;;;;;;;;;13.01;57.80;99858.78;4467535;32;33752;-70
2022/01/01 02:56:24;;;;;;;;;;;;;;;13.33;57.23;99852.59;4472901;32;35038;-71
2022/01/01 02:58:51;;;;;;;;;;;;;;;13.63;56.41;99863.41;4470357;32;34285;-71
2022/01/01 03:01:19;;;;;;;;;;;;;;;13.40;57.25;99859.13;4465990;32;33905;-72
2022/01/01 03:03:47;;;;;;;;;;;;;;;12.96;58.36;99863.69;4471854;31;32546;-72
2022/01/01 03:06:20;;;;;;;;;;;;;;;13.38;57.35;99861.94;4472953;32;34352;-71
2022/01/01 03:08:50;;;;;;;;;;;;;;;13.43;57.41;99862.41;4466687;32;34024;-71
2022/01/01 03:11:18;;;;;;;;;;;;;;;13.77;56.62;99864.06;4469161;32;33831;-71
2022/01/01 03:13:45;;;;;;;;;;;;;;;14.27;55.12;99877.63;4474629;31;34339;-71
2022/01/01 03:16:13;;;;;;;;;;;;;;;14.07;55.28;99872.16;4467240;32;34373;-71
2022/01/01 03:18:41;;;;;;;;;;;;;;;14.16;55.06;99876.75;4472822;32;33520;-70
2022/01/01 03:21:08;;;;;;;;;;;;;;;14.18;55.34;99873.91;4465511;32;33849;-74
2022/01/01 03:23:35;;;;;;;;;;;;;;;14.31;54.90;99881.75;4472223;32;32997;-71
2022/01/01 03:26:03;;;;;;;;;;;;;;;13.41;57.63;99883.19;4469408;31;34016;-71
2022/01/01 03:28:30;;;;;;;;;;;;;;;14.10;55.92;99885.34;4464617;32;34346;-73
2022/01/01 03:30:58;;;;;;;;;;;;;;;13.85;56.75;99888.47;4464788;32;34434;-73
2022/01/01 03:33:25;;;;;;;;;;;;;;;14.34;55.01;99890.41;4467531;32;34075;-71
2022/01/01 03:35:53;;;;;;;;;;;;;;;14.39;54.57;99903.50;4471390;31;34299;-72
2022/01/01 03:38:20;;;;;;;;;;;;;;;13.66;56.40;99895.41;4468451;32;34557;-71
2022/01/01 03:40:47;;;;;;;;;;;;;;;14.15;55.29;99891.19;4464811;32;34164;-71
2022/01/01 03:43:15;;;;;;;;;;;;;;;14.17;55.43;99899.97;4469463;32;34170;-73
2022/01/01 03:45:42;;;;;;;;;;;;;;;14.48;54.28;99904.50;4465328;32;34145;-73
2022/01/01 03:48:10;;;;;;;;;;;;;;;14.38;53.92;99902.66;4471932;32;32236;-73
2022/01/01 03:50:37;;;;;;;;;;;;;;;14.58;53.69;99911.69;4464797;32;33972;-72
2022/01/01 03:53:05;;;;;;;;;;;;;;;14.76;53.24;99900.22;4470107;32;34126;-72
2022/01/01 03:55:32;;;;;;;;;;;;;;;14.78;52.94;99900.97;4468876;32;34265;-73
2022/01/01 03:57:59;;;;;;;;;;;;;;;14.63;53.09;99901.31;4475100;31;33497;-72
2022/01/01 04:00:27;;;;;;;;;;;;;;;14.26;54.04;99909.09;4465810;32;33870;-73
2022/01/01 04:02:54;;;;;;;;;;;;;;;14.12;54.97;99918.34;4463524;32;34101;-71
2022/01/01 04:05:22;;;;;;;;;;;;;;;13.08;58.23;99920.94;4471453;32;34462;-71
2022/01/01 04:07:49;;;;;;;;;;;;;;;13.98;56.06;99922.25;4468389;32;33476;-77
2022/01/01 04:10:16;;;;;;;;;;;;;;;14.14;55.54;99916.41;4466480;32;33883;-75
2022/01/01 04:12:44;;;;;;;;;;;;;;;13.18;58.33;99920.03;4466843;32;33153;-71
2022/01/01 04:15:11;;;;;;;;;;;;;;;13.57;57.11;99920.41;4472349;31;35151;-72
2022/01/01 04:17:38;;;;;;;;;;;;;;;14.07;55.88;99925.16;4466301;32;32318;-74
2022/01/01 04:20:07;;;;;;;;;;;;;;;13.95;56.23;99935.13;4472947;32;34104;-72
2022/01/01 04:22:34;;;;;;;;;;;;;;;14.03;55.92;99942.53;4472838;32;34398;-71
2022/01/01 04:25:01;;;;;;;;;;;;;;;14.05;55.54;99943.25;4472382;31;35564;-72
2022/01/01 04:27:29;;;;;;;;;;;;;;;14.05;55.65;99941.41;4470762;32;33428;-74
2022/01/01 04:29:56;;;;;;;;;;;;;;;14.32;54.73;99946.25;4468889;32;34330;-72
2022/01/01 04:32:23;;;;;;;;;;;;;;;14.63;53.82;99948.97;4467180;32;35365;-75
2022/01/01 04:34:51;;;;;;;;;;;;;;;14.61;53.97;99957.19;4470740;32;34078;-73
2022/01/01 04:37:20;;;;;;;;;;;;;;;14.56;53.81;99945.97;4462978;32;33136;-73
2022/01/01 04:39:50;;;;;;;;;;;;;;;14.55;53.77;99946.97;4465308;32;34350;-75
2022/01/01 04:42:18;;;;;;;;;;;;;;;13.89;55.73;99941.03;4465263;32;35714;-74
2022/01/01 04:44:45;;;;;;;;;;;;;;;13.74;56.53;99940.50;4475773;32;32769;-74
2022/01/01 04:47:13;;;;;;;;;;;;;;;13.05;58.70;99939.00;4476828;31;33272;-74
2022/01/01 04:49:40;;;;;;;;;;;;;;;13.03;59.03;99940.97;4465142;32;34312;-75
2022/01/01 04:52:07;;;;;;;;;;;;;;;12.82;59.90;99945.41;4470679;32;35363;-74
2022/01/01 04:54:39;;;;;;;;;;;;;;;13.01;59.38;99948.31;4469093;32;34817;-72
2022/01/01 04:57:07;;;;;;;;;;;;;;;12.58;61.31;99953.59;4469827;32;33642;-71
2022/01/01 04:59:34;;;;;;;;;;;;;;;12.76;60.71;99952.12;4469220;32;33984;-70
2022/01/01 05:02:02;;;;;;;;;;;;;;;12.87;60.48;99955.75;4469413;32;34780;-74
2022/01/01 05:04:30;;;;;;;;;;;;;;;13.22;59.21;99945.66;4470483;32;33862;-72
2022/01/01 05:06:57;;;;;;;;;;;;;;;12.95;60.07;99942.56;4473512;32;33461;-74
2022/01/01 05:09:27;;;;;;;;;;;;;;;13.22;59.30;99929.53;4472549;31;33946;-74
2022/01/01 05:11:55;;;;;;;;;;;;;;;12.72;60.84;99931.03;4479739;32;34837;-73
2022/01/01 05:14:22;;;;;;;;;;;;;;;12.52;61.63;99937.97;4474401;31;34924;-72
2022/01/01 05:16:51;;;;;;;;;;;;;;;12.70;60.92;99924.91;4472052;32;32131;-72
2022/01/01 05:19:19;;;;;;;;;;;;;;;12.94;60.83;99920.22;4468630;32;34293;-72
2022/01/01 05:21:47;;;;;;;;;;;;;;;12.45;62.08;99926.84;4473453;32;34346;-70
2022/01/01 05:24:18;;;;;;;;;;;;;;;12.77;61.08;99926.97;4470891;32;34047;-71
2022/01/01 05:26:45;;;;;;;;;;;;;;;12.77;60.96;99931.47;4477913;32;31630;-72
2022/01/01 05:29:13;;;;;;;;;;;;;;;12.66;61.39;99924.31;4466367;32;34188;-73
2022/01/01 05:31:40;;;;;;;;;;;;;;;12.23;63.05;99916.13;4472561;32;33280;-70
2022/01/01 05:34:07;;;;;;;;;;;;;;;12.06;63.68;99922.81;4471393;32;33779;-73
2022/01/01 05:36:35;;;;;;;;;;;;;;;12.30;63.01;99925.41;4475477;31;33068;-73
2022/01/01 05:39:03;;;;;;;;;;;;;;;12.33;63.00;99917.97;4472604;32;34185;-73
2022/01/01 05:41:30;;;;;;;;;;;;;;;12.16;63.97;99925.63;4474234;31;33378;-73
2022/01/01 05:43:58;;;;;;;;;;;;;;;12.07;64.37;99919.16;4472303;32;34201;-71
2022/01/01 05:46:25;;;;;;;;;;;;;;;12.06;64.57;99922.81;4472554;32;35006;-72
2022/01/01 05:48:52;;;;;;;;;;;;;;;11.94;64.75;99910.34;4472982;32;33991;-73
2022/01/01 05:51:20;;;;;;;;;;;;;;;11.69;65.44;99924.78;4473664;32;33073;-73
2022/01/01 05:53:47;;;;;;;;;;;;;;;12.12;64.28;99923.19;4473735;32;34229;-73
2022/01/01 05:56:15;;;;;;;;;;;;;;;12.01;64.33;99923.19;4469420;32;34077;-71
2022/01/01 05:58:43;;;;;;;;;;;;;;;11.89;65.12;99943.75;4472443;31;35373;-73
2022/01/01 06:01:10;;;;;;;;;;;;;;;12.21;64.10;99932.34;4466157;32;34308;-72
2022/01/01 06:03:38;;;;;;;;;;;;;;;12.41;63.14;99941.50;4477319;31;33683;-72
2022/01/01 06:06:05;;;;;;;;;;;;;;;12.06;64.39;99941.59;4465730;32;32876;-77
2022/01/01 06:08:53;;;;;;;;;;;;;;;12.21;64.11;99943.09;4474342;31;33331;-75
2022/01/01 06:11:20;;;;;;;;;;;;;;;12.42;63.26;99958.47;4468919;32;35223;-75
2022/01/01 06:13:47;;;;;;;;;;;;;;;12.29;63.72;99962.09;4476832;32;35162;-77
2022/01/01 06:16:15;;;;;;;;;;;;;;;12.21;63.79;99967.25;4476072;32;33234;-75
2022/01/01 06:18:42;;;;;;;;;;;;;;;13.13;60.88;99964.38;4471901;32;35267;-74
2022/01/01 06:21:09;;;;;;;;;;;;;;;12.29;63.59;99972.00;4471896;32;34352;-74
2022/01/01 06:23:39;;;;;;;;;;;;;;;12.32;63.58;99972.59;4475453;32;33901;-75
2022/01/01 06:26:07;;;;;;;;;;;;;;;12.63;62.62;99982.78;4477418;32;33082;-73
2022/01/01 06:28:34;;;;;;;;;;;;;;;12.45;63.21;99983.22;4472479;32;33701;-78
2022/01/01 06:31:01;;;;;;;;;;;;;;;12.96;61.53;99984.56;4471855;32;34020;-75
2022/01/01 06:33:29;;;;;;;;;;;;;;;12.85;61.38;99985.44;4468748;32;34519;-75
2022/01/01 06:35:56;;;;;;;;;;;;;;;12.81;61.41;99992.91;4475407;32;33157;-75
2022/01/01 06:38:24;;;;;;;;;;;;;;;12.54;62.53;99989.72;4469976;32;34185;-75
2022/01/01 06:40:51;;;;;;;;;;;;;;;12.14;64.18;100006.25;4468943;32;34050;-75
2022/01/01 06:43:21;;;;;;;;;;;;;;;12.42;63.11;99996.91;4473603;32;32918;-75
2022/01/01 06:45:49;;;;;;;;;;;;;;;12.65;62.31;99989.75;4474049;32;33220;-74
2022/01/01 06:48:17;;;;;;;;;;;;;;;12.51;62.36;100003.37;4475364;32;34160;-74
2022/01/01 06:50:44;;;;;;;;;;;;;;;12.52;62.78;100000.59;4476561;32;34190;-74
2022/01/01 06:53:12;;;;;;;;;;;;;;;13.38;59.77;100007.13;4475674;32;32833;-74
2022/01/01 06:55:39;;;;;;;;;;;;;;;13.61;59.19;100002.56;4473691;32;33535;-74
2022/01/01 06:58:06;;;;;;;;;;;;;;;13.99;57.63;100007.38;4475725;32;33960;-76
2022/01/01 07:00:34;;;;;;;;;;;;;;;14.44;56.45;100022.41;4474100;32;34426;-75
2022/01/01 07:03:01;;;;;;;;;;;;;;;15.25;53.86;100020.69;4470599;32;34992;-75
2022/01/01 07:05:29;;;;;;;;;;;;;;;15.79;52.06;100018.50;4469781;32;32177;-77
2022/01/01 07:07:57;;;;;;;;;;;;;;;16.35;50.58;100019.63;4469584;32;33959;-75
2022/01/01 07:10:24;;;;;;;;;;;;;;;16.48;50.58;100034.50;4469012;32;35403;-75
2022/01/01 07:12:51;;;;;;;;;;;;;;;16.73;49.50;100037.59;4479020;32;35435;-75
2022/01/01 07:15:19;;;;;;;;;;;;;;;16.10;51.07;100031.88;4475842;32;33562;-74
2022/01/01 07:17:46;;;;;;;;;;;;;;;16.54;49.65;100038.50;4473992;32;35046;-74
2022/01/01 07:20:13;;;;;;;;;;;;;;;17.04;48.46;100030.06;4477232;32;35087;-73
2022/01/01 07:22:42;;;;;;;;;;;;;;;15.78;51.87;100039.25;4468734;32;34262;-72
2022/01/01 07:25:09;;;;;;;;;;;;;;;16.29;50.41;100051.59;4471071;32;33481;-72
2022/01/01 07:27:37;;;;;;;;;;;;;;;16.35;50.07;100063.69;4469927;32;34364;-73
2022/01/01 07:30:07;;;;;;;;;;;;;;;16.22;50.13;100071.25;4472741;32;34298;-73
2022/01/01 07:32:41;;;;;;;;;;;;;;;15.28;52.39;100077.03;4469444;32;33948;-71
2022/01/01 07:35:09;;;;;;;;;;;;;;;15.61;51.77;100078.53;4470204;32;33325;-72
2022/01/01 07:37:36;;;;;;;;;;;;;;;15.93;50.87;100069.38;4479313;32;34316;-72
2022/01/01 07:40:04;;;;;;;;;;;;;;;15.38;52.49;100079.78;4474222;32;34015;-74
2022/01/01 07:42:32;;;;;;;;;;;;;;;15.10;53.72;100092.16;4478755;32;33973;-72
2022/01/01 07:44:59;;;;;;;;;;;;;;;15.77;51.90;100088.81;4472371;32;32551;-73
2022/01/01 07:47:27;;;;;;;;;;;;;;;16.12;51.16;100084.75;4478194;32;34328;-73
2022/01/01 07:49:55;;;;;;;;;;;;;;;16.50;49.85;100091.09;4472913;32;34185;-72
2022/01/01 07:52:22;;;;;;;;;;;;;;;17.16;48.20;100082.13;4467126;32;33932;-74
2022/01/01 07:54:49;;;;;;;;;;;;;;;18.18;45.65;100095.50;4472203;32;33032;-73
2022/01/01 07:57:17;;;;;;;;;;;;;;;18.25;45.45;100093.03;4471251;32;34181;-72
2022/01/01 07:59:45;;;;;;;;;;;;;;;18.44;44.63;100102.84;4471142;32;34855;-73
2022/01/01 08:02:12;;;;;;;;;;;;;;;18.97;43.63;100110.91;4478736;31;34042;-73
2022/01/01 08:04:40;;;;;;;;;;;;;;;19.81;41.63;100103.84;4464318;32;33506;-73
2022/01/01 08:07:07;;;;;;;;;;;;;;;19.90;41.24;100110.12;4476533;31;33910;-72
2022/01/01 08:09:54;;;;;;;;;;;;;;;20.53;40.00;100104.13;4465309;32;35923;-71
2022/01/01 08:12:22;;;;;;;;;;;;;;;21.10;38.56;100112.22;4465692;32;33027;-71
2022/01/01 08:14:49;;;;;;;;;;;;;;;21.24;38.30;100112.50;4474346;32;32645;-72
2022/01/01 08:17:16;;;;;;;;;;;;;;;21.33;38.11;100123.19;4471458;32;34385;-72
2022/01/01 08:19:46;;;;;;;;;;;;;;;20.57;39.55;100143.53;4471264;32;34737;-71
2022/01/01 08:22:14;;;;;;;;;;;;;;;20.51;39.83;100136.06;4471873;32;35445;-71
2022/01/01 08:24:42;;;;;;;;;;;;;;;21.06;38.62;100132.63;4466884;31;33492;-70
2022/01/01 08:27:09;;;;;;;;;;;;;;;21.48;37.88;100131.53;4465353;32;34190;-70
2022/01/01 08:29:37;;;;;;;;;;;;;;;20.82;38.91;100144.38;4476268;31;34436;-72
2022/01/01 08:32:04;;;;;;;;;;;;;;;20.96;38.88;100153.72;4472273;32;35000;-70
2022/01/01 08:34:32;;;;;;;;;;;;;;;21.02;38.74;100154.91;4471714;31;33058;-70
2022/01/01 08:36:59;;;;;;;;;;;;;;;21.07;39.05;100147.94;4465818;32;33613;-71
2022/01/01 08:39:26;;;;;;;;;;;;;;;21.54;37.89;100151.75;4471242;32;32774;-70
2022/01/01 08:41:54;;;;;;;;;;;;;;;22.06;36.95;100152.03;4466478;31;34026;-71
2022/01/01 08:44:21;;;;;;;;;;;;;;;21.89;37.44;100149.56;4474723;32;34536;-70
2022/01/01 08:46:49;;;;;;;;;;;;;;;21.88;37.66;100145.97;4470381;32;32552;-72
2022/01/01 08:49:16;;;;;;;;;;;;;;;22.22;36.74;100140.19;4465305;32;34598;-70
2022/01/01 08:51:44;;;;;;;;;;;;;;;22.15;36.89;100146.50;4464052;32;33447;-71
2022/01/01 08:54:13;;;;;;;;;;;;;;;22.32;36.63;100150.88;4470749;32;32139;-72
2022/01/01 08:56:41;;;;;;;;;;;;;;;21.97;37.54;100157.69;4476567;31;35294;-69
2022/01/01 08:59:08;;;;;;;;;;;;;;;21.81;37.57;100153.19;4473560;32;34464;-70
2022/01/01 09:01:35;;;;;;;;;;;;;;;21.65;37.95;100169.59;4475183;32;33359;-70
2022/01/01 09:04:03;;;;;;;;;;;;;;;21.42;38.31;100172.22;4467603;32;33682;-70
2022/01/01 09:06:31;;;;;;;;;;;;;;;21.10;39.58;100169.37;4465069;32;33825;-70
2022/01/01 09:08:59;;;;;;;;;;;;;;;20.87;39.40;100173.81;4469899;32;34277;-70
2022/01/01 09:11:26;;;;;;;;;;;;;;;21.02;39.29;100176.69;4469096;32;34003;-70
2022/01/01 09:13:54;;;;;;;;;;;;;;;20.69;40.18;100182.97;4469666;31;34179;-70
2022/01/01 09:16:28;;;;;;;;;;;;;;;21.05;39.33;100182.63;4466049;32;35347;-71
2022/01/01 09:18:56;;;;;;;;;;;;;;;20.93;39.52;100178.59;4465624;31;34319;-71
2022/01/01 09:21:24;;;;;;;;;;;;;;;20.68;40.17;100189.44;4472231;32;34781;-69
2022/01/01 09:23:51;;;;;;;;;;;;;;;20.91;39.75;100180.59;4468204;32;33555;-69
2022/01/01 09:26:19;;;;;;;;;;;;;;;21.03;39.48;100181.97;4474397;32;35322;-69
2022/01/01 09:28:47;;;;;;;;;;;;;;;21.18;39.27;100187.53;4472006;32;34276;-69
2022/01/01 09:31:14;;;;;;;;;;;;;;;20.70;40.24;100183.81;4473111;32;34342;-69
2022/01/01 09:33:41;;;;;;;;;;;;;;;21.05;39.96;100179.91;4473983;32;33405;-75
2022/01/01 09:36:09;;;;;;;;;;;;;;;21.35;39.30;100188.41;4466248;32;33914;-75
2022/01/01 09:38:37;;;;;;;;;;;;;;;21.63;38.91;100194.28;4469159;32;34348;-67
2022/01/01 09:41:04;;;;;;;;;;;;;;;21.60;38.43;100192.78;4464924;32;34199;-68
2022/01/01 09:43:32;;;;;;;;;;;;;;;20.08;41.47;100178.78;4471344;32;32929;-68
2022/01/01 09:46:00;;;;;;;;;;;;;;;20.90;40.02;100187.09;4469020;31;33942;-70
2022/01/01 09:48:28;;;;;;;;;;;;;;;20.78;40.37;100196.59;4466565;32;33365;-71
2022/01/01 09:51:00;;;;;;;;;;;;;;;20.87;40.05;100185.53;4470381;32;35453;-72
2022/01/01 09:53:27;;;;;;;;;;;;;;;20.44;41.16;100178.50;4472035;32;33429;-71
2022/01/01 09:55:55;;;;;;;;;;;;;;;20.56;40.88;100187.22;4472790;31;33133;-71
2022/01/01 09:58:23;;;;;;;;;;;;;;;20.09;41.77;100187.78;4467835;32;34030;-71
2022/01/01 10:00:52;;;;;;;;;;;;;;;20.43;41.25;100182.25;4472807;32;32732;-71
2022/01/01 10:03:48;;;;;;;;;;;;;;;20.32;41.32;100188.88;4464516;32;34219;-71
2022/01/01 10:06:16;;;;;;;;;;;;;;;20.30;41.41;100184.62;4471889;32;33783;-70
2022/01/01 10:08:46;;;;;;;;;;;;;;;20.53;40.93;100190.28;4476887;31;34356;-71
2022/01/01 10:11:17;;;;;;;;;;;;;;;19.99;41.91;100198.78;4467827;32;32164;-71
2022/01/01 10:13:45;;;;;;;;;;;;;;;19.28;43.48;100195.34;4473452;32;33479;-70
2022/01/01 10:16:14;;;;;;;;;;;;;;;19.82;42.50;100200.59;4467569;32;35208;-70
2022/01/01 10:18:42;;;;;;;;;;;;;;;19.86;42.56;100191.09;4471731;32;32932;-71
2022/01/01 10:21:14;;;;;;;;;;;;;;;19.33;43.47;100204.91;4470116;32;33900;-72
2022/01/01 10:23:42;;;;;;;;;;;;;;;19.71;42.97;100200.88;4473614;31;33367;-75
2022/01/01 10:29:23;;;;;;;;;;;;;;;19.64;42.93;100197.94;4470958;32;35098;-76
2022/01/01 10:32:00;;;;;;;;;;;;;;;19.82;43.07;100191.59;4461997;32;34239;-75
2022/01/01 10:34:28;;;;;;;;;;;;;;;21.25;39.54;100188.56;4471200;32;33496;-75
2022/01/01 10:36:57;;;;;;;;;;;;;;;21.45;39.29;100193.66;4470848;32;33955;-76
2022/01/01 10:39:24;;;;;;;;;;;;;;;20.98;39.80;100186.22;4468823;32;34393;-76
2022/01/01 10:41:56;;;;;;;;;;;;;;;21.11;39.72;100201.00;4460577;32;33777;-74
2022/01/01 10:44:28;;;;;;;;;;;;;;;21.61;38.87;100207.22;4464782;32;32866;-75
2022/01/01 10:46:57;;;;;;;;;;;;;;;20.62;40.61;100211.03;4474168;32;34090;-76
2022/01/01 10:49:43;;;;;;;;;;;;;;;20.30;41.61;100204.50;4469828;32;35385;-74
2022/01/01 10:52:15;;;;;;;;;;;;;;;20.55;40.62;100205.41;4463022;31;33702;-73
2022/01/01 10:54:48;;;;;;;;;;;;;;;19.94;42.35;100212.03;4471892;32;33085;-72
2022/01/01 10:57:25;;;;;;;;;;;;;;;19.34;43.59;100218.28;4466435;32;33199;-73
2022/01/01 11:00:03;;;;;;;;;;;;;;;18.83;45.00;100209.09;4464626;32;34072;-70
2022/01/01 11:02:37;;;;;;;;;;;;;;;18.53;45.55;100203.03;4467232;32;34095;-73
2022/01/01 11:05:05;;;;;;;;;;;;;;;19.21;44.05;100204.31;4475540;32;33025;-71
2022/01/01 11:07:33;;;;;;;;;;;;;;;19.28;43.98;100208.91;4465934;32;34218;-74
2022/01/01 11:10:00;;;;;;;;;;;;;;;18.35;45.72;100204.88;4461817;32;35026;-70
2022/01/01 11:12:28;;;;;;;;;;;;;;;18.36;45.92;100209.28;4463511;32;35108;-73
2022/01/01 11:14:56;;;;;;;;;;;;;;;18.75;45.19;100214.47;4463890;32;33389;-72
2022/01/01 11:17:24;;;;;;;;;;;;;;;18.37;45.87;100214.56;4471567;32;35230;-73
2022/01/01 11:19:51;;;;;;;;;;;;;;;18.16;46.63;100214.84;4466162;32;34700;-71
2022/01/01 11:22:19;;;;;;;;;;;;;;;18.06;46.84;100205.06;4472300;32;35007;-71
2022/01/01 11:24:46;;;;;;;;;;;;;;;18.27;46.37;100208.38;4470389;31;33275;-70
2022/01/01 11:27:13;;;;;;;;;;;;;;;17.65;48.19;100218.06;4460230;32;33854;-71
2022/01/01 11:29:49;;;;;;;;;;;;;;;18.26;46.78;100219.34;4469650;31;35319;-69
2022/01/01 11:32:21;;;;;;;;;;;;;;;18.06;47.20;100218.62;4467976;32;34271;-72
2022/01/01 11:34:49;;;;;;;;;;;;;;;17.67;48.24;100200.69;4472822;32;33129;-69
2022/01/01 11:37:16;;;;;;;;;;;;;;;18.07;47.32;100195.94;4464537;32;33896;-69
2022/01/01 11:39:44;;;;;;;;;;;;;;;17.86;48.21;100196.22;4470961;32;34488;-69
2022/01/01 11:42:12;;;;;;;;;;;;;;;18.04;47.63;100199.81;4473972;32;34928;-71
2022/01/01 11:44:43;;;;;;;;;;;;;;;17.38;48.93;100199.94;4471818;32;33913;-77
2022/01/01 11:47:14;;;;;;;;;;;;;;;17.49;49.30;100199.75;4470907;32;33962;-80
2022/01/01 11:49:42;;;;;;;;;;;;;;;17.36;49.55;100208.19;4470931;32;34451;-77
2022/01/01 11:52:35;;;;;;;;;;;;;;;16.64;51.70;100204.16;4475168;32;34768;-77
2022/01/01 11:55:10;;;;;;;;;;;;;;;16.69;51.45;100211.81;4471715;32;32722;-78
2022/01/01 11:57:38;;;;;;;;;;;;;;;16.39;52.55;100210.13;4470447;32;35027;-83
2022/01/01 12:00:09;;;;;;;;;;;;;;;16.73;51.71;100213.28;4474188;32;35358;-77
2022/01/01 12:02:36;;;;;;;;;;;;;;;16.48;52.35;100223.63;4467658;32;34223;-77
2022/01/01 12:05:12;;;;;;;;;;;;;;;16.60;51.89;100218.97;4467556;32;33217;-76
2022/01/01 12:07:43;;;;;;;;;;;;;;;16.66;52.17;100228.31;4478650;32;33498;-74
2022/01/01 12:10:12;;;;;;;;;;;;;;;16.52;51.91;100227.75;4475310;32;33819;-75
2022/01/01 12:12:53;;;;;;;;;;;;;;;16.50;52.73;100223.47;4473805;32;34086;-72
2022/01/01 12:15:24;;;;;;;;;;;;;;;16.37;53.04;100231.88;4472710;32;31876;-75
2022/01/01 12:18:21;;;;;;;;;;;;;;;16.83;51.68;100237.63;4466752;32;32515;-72
2022/01/01 12:20:51;;;;;;;;;;;;;;;16.73;52.03;100224.09;4460517;32;35079;-72
2022/01/01 12:23:21;;;;;;;;;;;;;;;16.81;51.79;100218.84;4476138;32;33221;-72
2022/01/01 12:25:53;;;;;;;;;;;;;;;16.66;52.35;100209.41;4468488;32;33420;-72
2022/01/01 12:28:23;;;;;;;;;;;;;;;16.40;51.96;100219.94;4477090;32;32996;-73
2022/01/01 12:30:51;;;;;;;;;;;;;;;16.64;52.17;100216.81;4472150;32;33696;-72
2022/01/01 12:33:39;;;;;;;;;;;;;;;16.37;52.90;100220.19;4471815;32;33895;-71
2022/01/01 12:36:07;;;;;;;;;;;;;;;16.13;53.63;100228.72;4470831;32;34391;-71
2022/01/01 12:38:39;;;;;;;;;;;;;;;16.11;53.44;100231.53;4466650;32;35101;-72
2022/01/01 12:41:17;;;;;;;;;;;;;;;16.06;53.69;100233.81;4468889;32;35031;-71
2022/01/01 12:43:49;;;;;;;;;;;;;;;15.67;54.43;100238.22;4475055;32;34056;-72
2022/01/01 12:46:17;;;;;;;;;;;;;;;15.76;54.94;100235.56;4475195;32;33282;-70
2022/01/01 12:48:45;;;;;;;;;;;;;;;16.09;53.17;100240.78;4471714;32;35364;-76
2022/01/01 12:51:14;;;;;;;;;;;;;;;16.28;53.23;100240.81;4467868;32;34207;-78
2022/01/01 12:53:42;;;;;;;;;;;;;;;16.18;53.53;100242.62;4470685;32;33127;-78